sensor_id;sensor_type;location;lat;lon;timestamp;pressure;altitude;pressure_sealevel;temperature;humidity
5609;BME280;2826;51.354;9.588;2023-03-04T00:02:14;98777.69;;;3.76;77.24
5609;BME280;2826;51.354;9.588;2023-03-04T00:04:40;98771.72;;;3.78;77.09
5609;BME280;2826;51.354;9.588;2023-03-04T00:07:07;98770.84;;;3.78;77.25
5609;BME280;2826;51.354;9.588;2023-03-04T00:09:33;98771.72;;;3.80;77.30
5609;BME280;2826;51.354;9.588;2023-03-04T00:12:00;98764.00;;;3.80;76.88
5609;BME280;2826;51.354;9.588;2023-03-04T00:14:27;98776.84;;;3.78;77.09
5609;BME280;2826;51.354;9.588;2023-03-04T00:16:53;98770.00;;;3.79;77.09
5609;BME280;2826;51.354;9.588;2023-03-04T00:19:21;98764.00;;;3.78;77.15
5609;BME280;2826;51.354;9.588;2023-03-04T00:21:48;98758.88;;;3.75;76.99
5609;BME280;2826;51.354;9.588;2023-03-04T00:24:14;98762.31;;;3.77;77.07
5609;BME280;2826;51.354;9.588;2023-03-04T00:26:41;98765.75;;;3.75;77.28
5609;BME280;2826;51.354;9.588;2023-03-04T00:29:26;98755.47;;;3.75;76.99
5609;BME280;2826;51.354;9.588;2023-03-04T00:31:53;98767.44;;;3.77;77.16
5609;BME280;2826;51.354;9.588;2023-03-04T00:34:21;98762.31;;;3.76;77.45
5609;BME280;2826;51.354;9.588;2023-03-04T00:36:48;98759.75;;;3.74;77.61
5609;BME280;2826;51.354;9.588;2023-03-04T00:39:15;98764.03;;;3.72;77.54
5609;BME280;2826;51.354;9.588;2023-03-04T00:41:42;98759.75;;;3.74;77.25
5609;BME280;2826;51.354;9.588;2023-03-04T00:44:09;98764.00;;;3.80;77.21
5609;BME280;2826;51.354;9.588;2023-03-04T00:46:35;98761.44;;;3.77;77.42
5609;BME280;2826;51.354;9.588;2023-03-04T00:49:02;98763.16;;;3.72;77.44
5609;BME280;2826;51.354;9.588;2023-03-04T00:51:30;98757.19;;;3.74;77.35
5609;BME280;2826;51.354;9.588;2023-03-04T00:53:56;98754.59;;;3.82;76.97
5609;BME280;2826;51.354;9.588;2023-03-04T00:56:23;98737.56;;;3.65;76.86
5609;BME280;2826;51.354;9.588;2023-03-04T00:58:49;98753.75;;;3.80;76.56
5609;BME280;2826;51.354;9.588;2023-03-04T01:01:16;98753.75;;;3.83;76.69
5609;BME280;2826;51.354;9.588;2023-03-04T01:03:52;98755.44;;;3.84;76.57
5609;BME280;2826;51.354;9.588;2023-03-04T01:06:18;98752.88;;;3.87;76.38
5609;BME280;2826;51.354;9.588;2023-03-04T01:08:46;98758.00;;;3.81;76.93
5609;BME280;2826;51.354;9.588;2023-03-04T01:11:12;98748.63;;;3.77;76.92
5609;BME280;2826;51.354;9.588;2023-03-04T01:13:39;98752.06;;;3.79;76.83
5609;BME280;2826;51.354;9.588;2023-03-04T01:16:06;98753.75;;;3.80;76.88
5609;BME280;2826;51.354;9.588;2023-03-04T01:18:35;98741.78;;;3.79;77.01
5609;BME280;2826;51.354;9.588;2023-03-04T01:21:01;98737.50;;;3.87;76.67
5609;BME280;2826;51.354;9.588;2023-03-04T01:23:28;98740.91;;;3.86;76.39
5609;BME280;2826;51.354;9.588;2023-03-04T01:25:56;98736.63;;;3.88;76.23
5609;BME280;2826;51.354;9.588;2023-03-04T01:28:23;98733.22;;;3.83;76.65
5609;BME280;2826;51.354;9.588;2023-03-04T01:30:50;98739.19;;;3.88;76.49
5609;BME280;2826;51.354;9.588;2023-03-04T01:33:17;98731.50;;;3.85;76.59
5609;BME280;2826;51.354;9.588;2023-03-04T01:35:43;98734.06;;;3.87;76.36
5609;BME280;2826;51.354;9.588;2023-03-04T01:38:10;98730.63;;;3.89;76.46
5609;BME280;2826;51.354;9.588;2023-03-04T01:40:37;98719.53;;;3.87;76.03
5609;BME280;2826;51.354;9.588;2023-03-04T01:43:06;98717.81;;;3.88;76.06
5609;BME280;2826;51.354;9.588;2023-03-04T01:45:34;98717.78;;;3.94;75.92
5609;BME280;2826;51.354;9.588;2023-03-04T01:48:01;98722.94;;;3.91;75.99
5609;BME280;2826;51.354;9.588;2023-03-04T01:50:31;98715.22;;;3.92;75.71
5609;BME280;2826;51.354;9.588;2023-03-04T01:53:00;98710.97;;;3.88;76.15
5609;BME280;2826;51.354;9.588;2023-03-04T01:55:28;98701.53;;;3.92;75.96
5609;BME280;2826;51.354;9.588;2023-03-04T01:57:55;98705.81;;;3.95;75.81
5609;BME280;2826;51.354;9.588;2023-03-04T02:00:29;98706.66;;;3.97;75.77
5609;BME280;2826;51.354;9.588;2023-03-04T02:02:58;98698.97;;;3.90;75.70
5609;BME280;2826;51.354;9.588;2023-03-04T02:05:26;98700.72;;;3.88;76.03
5609;BME280;2826;51.354;9.588;2023-03-04T02:07:55;98693.00;;;3.87;76.16
5609;BME280;2826;51.354;9.588;2023-03-04T02:10:23;98687.00;;;3.92;75.84
5609;BME280;2826;51.354;9.588;2023-03-04T02:12:50;98693.84;;;3.89;76.20
5609;BME280;2826;51.354;9.588;2023-03-04T02:15:16;98688.75;;;3.86;76.41
5609;BME280;2826;51.354;9.588;2023-03-04T02:17:45;98692.16;;;3.86;76.42
5609;BME280;2826;51.354;9.588;2023-03-04T02:20:26;98692.16;;;3.89;76.24
5609;BME280;2826;51.354;9.588;2023-03-04T02:23:00;98682.75;;;3.88;76.31
5609;BME280;2826;51.354;9.588;2023-03-04T02:25:34;98677.59;;;3.91;76.42
5609;BME280;2826;51.354;9.588;2023-03-04T02:28:04;98677.63;;;3.90;76.38
5609;BME280;2826;51.354;9.588;2023-03-04T02:30:30;98684.44;;;3.92;76.23
5609;BME280;2826;51.354;9.588;2023-03-04T02:32:58;98675.88;;;3.95;76.18
5609;BME280;2826;51.354;9.588;2023-03-04T02:35:24;98670.75;;;3.92;76.07
5609;BME280;2826;51.354;9.588;2023-03-04T02:37:51;98675.00;;;3.95;76.14
5609;BME280;2826;51.354;9.588;2023-03-04T02:40:22;98673.31;;;3.89;76.48
5609;BME280;2826;51.354;9.588;2023-03-04T02:42:49;98672.44;;;3.95;76.03
5609;BME280;2826;51.354;9.588;2023-03-04T02:45:34;98678.44;;;3.90;76.23
5609;BME280;2826;51.354;9.588;2023-03-04T02:48:04;98666.44;;;3.96;76.16
5609;BME280;2826;51.354;9.588;2023-03-04T02:50:34;98669.91;;;3.91;76.18
5609;BME280;2826;51.354;9.588;2023-03-04T02:53:01;98661.31;;;3.97;75.97
5609;BME280;2826;51.354;9.588;2023-03-04T02:55:28;98661.34;;;3.94;76.00
5609;BME280;2826;51.354;9.588;2023-03-04T02:57:55;98668.19;;;3.97;76.15
5609;BME280;2826;51.354;9.588;2023-03-04T03:00:22;98664.75;;;3.95;75.93
5609;BME280;2826;51.354;9.588;2023-03-04T03:02:50;98658.75;;;3.97;76.01
5609;BME280;2826;51.354;9.588;2023-03-04T03:05:17;98662.19;;;3.93;76.11
5609;BME280;2826;51.354;9.588;2023-03-04T03:07:44;98660.47;;;3.97;75.94
5609;BME280;2826;51.354;9.588;2023-03-04T03:10:11;98651.09;;;3.91;76.08
5609;BME280;2826;51.354;9.588;2023-03-04T03:12:39;98657.91;;;3.97;76.04
5609;BME280;2826;51.354;9.588;2023-03-04T03:15:06;98653.63;;;3.96;75.87
5609;BME280;2826;51.354;9.588;2023-03-04T03:17:33;98657.00;;;4.04;75.53
5609;BME280;2826;51.354;9.588;2023-03-04T03:20:01;98657.06;;;3.95;76.02
5609;BME280;2826;51.354;9.588;2023-03-04T03:22:28;98653.63;;;3.96;75.91
5609;BME280;2826;51.354;9.588;2023-03-04T03:24:55;98652.72;;;4.03;75.77
5609;BME280;2826;51.354;9.588;2023-03-04T03:27:21;98658.69;;;4.08;75.44
5609;BME280;2826;51.354;9.588;2023-03-04T03:29:49;98654.44;;;4.07;75.51
5609;BME280;2826;51.354;9.588;2023-03-04T03:32:16;98660.44;;;4.00;75.88
5609;BME280;2826;51.354;9.588;2023-03-04T03:34:43;98656.22;;;3.92;76.23
5609;BME280;2826;51.354;9.588;2023-03-04T03:37:12;98642.56;;;3.83;76.59
5609;BME280;2826;51.354;9.588;2023-03-04T03:39:38;98651.09;;;3.86;76.52
5609;BME280;2826;51.354;9.588;2023-03-04T03:42:05;98661.34;;;3.85;76.76
5609;BME280;2826;51.354;9.588;2023-03-04T03:44:32;98651.13;;;3.82;76.80
5609;BME280;2826;51.354;9.588;2023-03-04T03:46:59;98652.78;;;3.92;76.53
5609;BME280;2826;51.354;9.588;2023-03-04T03:49:25;98649.41;;;3.87;76.86
5609;BME280;2826;51.354;9.588;2023-03-04T03:51:52;98650.25;;;3.87;76.86
5609;BME280;2826;51.354;9.588;2023-03-04T03:54:21;98650.22;;;3.94;76.36
5609;BME280;2826;51.354;9.588;2023-03-04T03:56:47;98654.53;;;3.91;76.78
5609;BME280;2826;51.354;9.588;2023-03-04T03:59:14;98635.66;;;3.97;76.24
5609;BME280;2826;51.354;9.588;2023-03-04T04:01:41;98651.03;;;4.00;76.17
5609;BME280;2826;51.354;9.588;2023-03-04T04:04:07;98649.34;;;3.95;76.41
5609;BME280;2826;51.354;9.588;2023-03-04T04:06:34;98650.19;;;4.00;76.25
5609;BME280;2826;51.354;9.588;2023-03-04T04:09:01;98637.34;;;4.03;75.85
5609;BME280;2826;51.354;9.588;2023-03-04T04:11:29;98640.72;;;4.11;75.48
5609;BME280;2826;51.354;9.588;2023-03-04T04:13:55;98638.19;;;4.03;75.54
5609;BME280;2826;51.354;9.588;2023-03-04T04:16:22;98633.88;;;4.12;75.54
5609;BME280;2826;51.354;9.588;2023-03-04T04:18:48;98628.78;;;4.02;75.62
5609;BME280;2826;51.354;9.588;2023-03-04T04:21:15;98636.50;;;3.98;75.52
5609;BME280;2826;51.354;9.588;2023-03-04T04:23:41;98623.63;;;4.10;75.30
5609;BME280;2826;51.354;9.588;2023-03-04T04:26:08;98621.03;;;4.12;75.26
5609;BME280;2826;51.354;9.588;2023-03-04T04:28:36;98627.91;;;4.07;75.58
5609;BME280;2826;51.354;9.588;2023-03-04T04:31:06;98621.88;;;4.12;75.33
5609;BME280;2826;51.354;9.588;2023-03-04T04:33:33;98622.75;;;4.13;75.39
5609;BME280;2826;51.354;9.588;2023-03-04T04:35:59;98627.06;;;4.06;75.62
5609;BME280;2826;51.354;9.588;2023-03-04T04:38:26;98618.50;;;4.10;75.44
5609;BME280;2826;51.354;9.588;2023-03-04T04:40:55;98624.44;;;4.17;75.50
5609;BME280;2826;51.354;9.588;2023-03-04T04:43:22;98620.13;;;4.17;75.26
5609;BME280;2826;51.354;9.588;2023-03-04T04:45:50;98616.69;;;4.23;74.88
5609;BME280;2826;51.354;9.588;2023-03-04T04:48:17;98613.31;;;4.13;75.32
5609;BME280;2826;51.354;9.588;2023-03-04T04:50:43;98620.13;;;4.21;75.13
5609;BME280;2826;51.354;9.588;2023-03-04T04:53:10;98614.13;;;4.20;75.34
5609;BME280;2826;51.354;9.588;2023-03-04T04:55:37;98617.53;;;4.24;75.27
5609;BME280;2826;51.354;9.588;2023-03-04T04:58:04;98617.50;;;4.27;75.09
5609;BME280;2826;51.354;9.588;2023-03-04T05:00:31;98603.91;;;4.15;75.25
5609;BME280;2826;51.354;9.588;2023-03-04T05:02:59;98611.56;;;4.22;75.23
5609;BME280;2826;51.354;9.588;2023-03-04T05:05:25;98613.22;;;4.29;74.96
5609;BME280;2826;51.354;9.588;2023-03-04T05:07:52;98608.97;;;4.25;75.33
5609;BME280;2826;51.354;9.588;2023-03-04T05:10:19;98601.28;;;4.20;75.15
5609;BME280;2826;51.354;9.588;2023-03-04T05:12:45;98609.03;;;4.15;76.01
5609;BME280;2826;51.354;9.588;2023-03-04T05:15:12;98611.56;;;4.20;75.53
5609;BME280;2826;51.354;9.588;2023-03-04T05:17:39;98625.31;;;4.14;76.05
5609;BME280;2826;51.354;9.588;2023-03-04T05:20:08;98615.88;;;4.15;75.93
5609;BME280;2826;51.354;9.588;2023-03-04T05:22:35;98616.69;;;4.23;75.64
5609;BME280;2826;51.354;9.588;2023-03-04T05:25:02;98614.16;;;4.15;76.01
5609;BME280;2826;51.354;9.588;2023-03-04T05:27:29;98619.25;;;4.20;75.83
5609;BME280;2826;51.354;9.588;2023-03-04T05:29:55;98620.06;;;4.30;75.30
5609;BME280;2826;51.354;9.588;2023-03-04T05:32:25;98594.56;;;4.05;75.50
5609;BME280;2826;51.354;9.588;2023-03-04T05:34:51;98629.44;;;4.34;75.54
5609;BME280;2826;51.354;9.588;2023-03-04T05:37:29;98619.19;;;4.32;75.50
5609;BME280;2826;51.354;9.588;2023-03-04T05:39:56;98626.88;;;4.36;75.32
5609;BME280;2826;51.354;9.588;2023-03-04T05:42:23;98622.63;;;4.33;75.38
5609;BME280;2826;51.354;9.588;2023-03-04T05:44:49;98629.44;;;4.37;75.33
5609;BME280;2826;51.354;9.588;2023-03-04T05:47:15;98623.44;;;4.38;75.56
5609;BME280;2826;51.354;9.588;2023-03-04T05:49:42;98626.88;;;4.37;75.43
5609;BME280;2826;51.354;9.588;2023-03-04T05:52:09;98592.75;;;4.20;75.56
5609;BME280;2826;51.354;9.588;2023-03-04T05:54:36;98622.63;;;4.33;75.58
5609;BME280;2826;51.354;9.588;2023-03-04T05:57:03;98617.41;;;4.41;75.54
5609;BME280;2826;51.354;9.588;2023-03-04T05:59:30;98628.56;;;4.40;75.40
5609;BME280;2826;51.354;9.588;2023-03-04T06:01:56;98618.38;;;4.29;75.55
5609;BME280;2826;51.354;9.588;2023-03-04T06:04:23;98623.50;;;4.26;76.05
5609;BME280;2826;51.354;9.588;2023-03-04T06:06:49;98620.06;;;4.31;75.69
5609;BME280;2826;51.354;9.588;2023-03-04T06:09:16;98625.16;;;4.36;75.59
5609;BME280;2826;51.354;9.588;2023-03-04T06:11:47;98625.16;;;4.36;75.78
5609;BME280;2826;51.354;9.588;2023-03-04T06:14:14;98620.00;;;4.39;75.62
5609;BME280;2826;51.354;9.588;2023-03-04T06:16:41;98626.88;;;4.37;75.90
5609;BME280;2826;51.354;9.588;2023-03-04T06:19:08;98629.44;;;4.37;75.75
5609;BME280;2826;51.354;9.588;2023-03-04T06:21:34;98636.34;;;4.29;76.32
5609;BME280;2826;51.354;9.588;2023-03-04T06:24:01;98633.75;;;4.32;76.17
5609;BME280;2826;51.354;9.588;2023-03-04T06:26:28;98632.84;;;4.38;75.75
5609;BME280;2826;51.354;9.588;2023-03-04T06:28:56;98632.03;;;4.31;76.11
5609;BME280;2826;51.354;9.588;2023-03-04T06:31:22;98631.94;;;4.43;75.81
5609;BME280;2826;51.354;9.588;2023-03-04T06:33:49;98630.19;;;4.49;75.71
5609;BME280;2826;51.354;9.588;2023-03-04T06:36:16;98631.06;;;4.49;75.46
5609;BME280;2826;51.354;9.588;2023-03-04T06:38:42;98632.75;;;4.49;75.31
5609;BME280;2826;51.354;9.588;2023-03-04T06:41:10;98629.34;;;4.48;75.27
5609;BME280;2826;51.354;9.588;2023-03-04T06:43:37;98637.88;;;4.52;75.25
5609;BME280;2826;51.354;9.588;2023-03-04T06:46:06;98618.22;;;4.46;75.28
5609;BME280;2826;51.354;9.588;2023-03-04T06:48:33;98635.28;;;4.56;75.03
5609;BME280;2826;51.354;9.588;2023-03-04T06:51:04;98636.13;;;4.60;75.20
5609;BME280;2826;51.354;9.588;2023-03-04T06:53:30;98637.81;;;4.63;75.22
5609;BME280;2826;51.354;9.588;2023-03-04T06:55:57;98634.38;;;4.61;75.25
5609;BME280;2826;51.354;9.588;2023-03-04T06:58:24;98631.81;;;4.61;75.51
5609;BME280;2826;51.354;9.588;2023-03-04T07:00:50;98642.94;;;4.63;75.65
5609;BME280;2826;51.354;9.588;2023-03-04T07:03:18;98605.44;;;4.38;75.76
5609;BME280;2826;51.354;9.588;2023-03-04T07:05:45;98639.50;;;4.61;75.87
5609;BME280;2826;51.354;9.588;2023-03-04T07:08:12;98637.81;;;4.60;75.91
5609;BME280;2826;51.354;9.588;2023-03-04T07:10:38;98642.06;;;4.67;75.97
5609;BME280;2826;51.354;9.588;2023-03-04T07:13:05;98644.63;;;4.64;76.15
5609;BME280;2826;51.354;9.588;2023-03-04T07:15:31;98642.94;;;4.64;76.37
5609;BME280;2826;51.354;9.588;2023-03-04T07:17:58;98644.63;;;4.65;76.54
5609;BME280;2826;51.354;9.588;2023-03-04T07:20:26;98646.31;;;4.69;76.24
5609;BME280;2826;51.354;9.588;2023-03-04T07:22:53;98643.75;;;4.68;76.74
5609;BME280;2826;51.354;9.588;2023-03-04T07:25:19;98647.19;;;4.68;77.06
5609;BME280;2826;51.354;9.588;2023-03-04T07:27:46;98648.88;;;4.68;77.00
5609;BME280;2826;51.354;9.588;2023-03-04T07:30:13;98650.56;;;4.74;77.04
5609;BME280;2826;51.354;9.588;2023-03-04T07:32:39;98639.41;;;4.78;77.17
5609;BME280;2826;51.354;9.588;2023-03-04T07:35:07;98629.13;;;4.78;77.04
5609;BME280;2826;51.354;9.588;2023-03-04T07:37:34;98642.75;;;4.84;77.16
5609;BME280;2826;51.354;9.588;2023-03-04T07:40:01;98651.19;;;5.01;76.98
5609;BME280;2826;51.354;9.588;2023-03-04T07:42:28;98646.13;;;4.94;76.81
5609;BME280;2826;51.354;9.588;2023-03-04T07:45:02;98645.25;;;4.95;76.69
5609;BME280;2826;51.354;9.588;2023-03-04T07:47:30;98645.22;;;4.97;76.74
5609;BME280;2826;51.354;9.588;2023-03-04T07:49:56;98652.97;;;4.92;77.01
5609;BME280;2826;51.354;9.588;2023-03-04T07:52:23;98649.53;;;4.95;76.67
5609;BME280;2826;51.354;9.588;2023-03-04T07:54:51;98641.88;;;4.90;77.07
5609;BME280;2826;51.354;9.588;2023-03-04T07:57:17;98650.31;;;5.02;76.91
5609;BME280;2826;51.354;9.588;2023-03-04T07:59:44;98650.28;;;5.08;76.79
5609;BME280;2826;51.354;9.588;2023-03-04T08:02:27;98649.31;;;5.17;76.51
5609;BME280;2826;51.354;9.588;2023-03-04T08:04:54;98644.03;;;5.31;76.40
5609;BME280;2826;51.354;9.588;2023-03-04T08:07:21;98641.41;;;5.34;76.08
5609;BME280;2826;51.354;9.588;2023-03-04T08:09:48;98642.16;;;5.45;75.41
5609;BME280;2826;51.354;9.588;2023-03-04T08:12:16;98642.19;;;5.42;75.39
5609;BME280;2826;51.354;9.588;2023-03-04T08:14:44;98642.19;;;5.44;75.25
5609;BME280;2826;51.354;9.588;2023-03-04T08:17:10;98646.44;;;5.46;75.29
5609;BME280;2826;51.354;9.588;2023-03-04T08:19:39;98644.59;;;5.58;74.71
5609;BME280;2826;51.354;9.588;2023-03-04T08:22:05;98619.03;;;5.45;74.81
5609;BME280;2826;51.354;9.588;2023-03-04T08:24:32;98637.59;;;5.69;74.95
5609;BME280;2826;51.354;9.588;2023-03-04T08:26:59;98632.53;;;5.63;75.08
5609;BME280;2826;51.354;9.588;2023-03-04T08:29:27;98633.34;;;5.65;75.08
5609;BME280;2826;51.354;9.588;2023-03-04T08:31:54;98639.28;;;5.70;74.82
5609;BME280;2826;51.354;9.588;2023-03-04T08:34:23;98642.03;;;5.56;75.51
5609;BME280;2826;51.354;9.588;2023-03-04T08:36:49;98639.50;;;5.52;75.82
5609;BME280;2826;51.354;9.588;2023-03-04T08:39:17;98630.84;;;5.60;75.40
5609;BME280;2826;51.354;9.588;2023-03-04T08:41:44;98628.16;;;5.70;75.25
5609;BME280;2826;51.354;9.588;2023-03-04T08:44:11;98629.84;;;5.74;75.02
5609;BME280;2826;51.354;9.588;2023-03-04T08:46:41;98603.31;;;5.67;74.52
5609;BME280;2826;51.354;9.588;2023-03-04T08:49:10;98623.00;;;5.71;74.84
5609;BME280;2826;51.354;9.588;2023-03-04T08:51:37;98631.53;;;5.75;74.79
5609;BME280;2826;51.354;9.588;2023-03-04T08:54:04;98624.63;;;5.77;74.74
5609;BME280;2826;51.354;9.588;2023-03-04T08:56:31;98618.69;;;5.73;74.94
5609;BME280;2826;51.354;9.588;2023-03-04T08:58:58;98621.13;;;5.83;75.19
5609;BME280;2826;51.354;9.588;2023-03-04T09:01:25;98626.22;;;5.89;74.89
5609;BME280;2826;51.354;9.588;2023-03-04T09:03:53;98623.50;;;5.98;74.95
5609;BME280;2826;51.354;9.588;2023-03-04T09:06:19;98612.28;;;6.06;75.03
5609;BME280;2826;51.354;9.588;2023-03-04T09:08:46;98609.91;;;5.87;75.18
5609;BME280;2826;51.354;9.588;2023-03-04T09:11:13;98615.00;;;5.93;75.27
5609;BME280;2826;51.354;9.588;2023-03-04T09:13:40;98627.00;;;5.94;75.72
5609;BME280;2826;51.354;9.588;2023-03-04T09:16:08;98612.44;;;5.93;76.34
5609;BME280;2826;51.354;9.588;2023-03-04T09:18:35;98620.03;;;6.04;76.40
5609;BME280;2826;51.354;9.588;2023-03-04T09:21:05;98627.69;;;6.07;76.81
5609;BME280;2826;51.354;9.588;2023-03-04T09:23:32;98626.19;;;5.91;77.02
5609;BME280;2826;51.354;9.588;2023-03-04T09:25:59;98635.78;;;5.76;77.58
5609;BME280;2826;51.354;9.588;2023-03-04T09:28:26;98624.50;;;5.88;77.06
5609;BME280;2826;51.354;9.588;2023-03-04T09:30:52;98625.22;;;5.98;77.06
5609;BME280;2826;51.354;9.588;2023-03-04T09:33:19;98630.34;;;6.04;77.28
5609;BME280;2826;51.354;9.588;2023-03-04T09:35:46;98614.78;;;6.12;77.12
5609;BME280;2826;51.354;9.588;2023-03-04T09:38:15;98595.22;;;5.95;76.93
5609;BME280;2826;51.354;9.588;2023-03-04T09:40:44;98621.06;;;5.91;78.11
5609;BME280;2826;51.354;9.588;2023-03-04T09:43:17;98621.13;;;5.81;78.50
5609;BME280;2826;51.354;9.588;2023-03-04T09:45:47;98632.19;;;5.91;78.54
5609;BME280;2826;51.354;9.588;2023-03-04T09:48:16;98631.31;;;5.92;78.59
5609;BME280;2826;51.354;9.588;2023-03-04T09:51:01;98622.72;;;5.93;78.28
5609;BME280;2826;51.354;9.588;2023-03-04T09:53:39;98626.97;;;5.97;78.35
5609;BME280;2826;51.354;9.588;2023-03-04T09:56:06;98626.81;;;6.08;78.42
5609;BME280;2826;51.354;9.588;2023-03-04T09:58:46;98626.72;;;6.18;78.61
5609;BME280;2826;51.354;9.588;2023-03-04T10:01:19;98627.69;;;6.09;78.26
5609;BME280;2826;51.354;9.588;2023-03-04T10:03:50;98627.75;;;6.04;78.42
5609;BME280;2826;51.354;9.588;2023-03-04T10:06:20;98624.31;;;6.00;78.69
5609;BME280;2826;51.354;9.588;2023-03-04T10:08:53;98622.69;;;5.95;78.70
5609;BME280;2826;51.354;9.588;2023-03-04T10:11:24;98622.63;;;6.04;78.79
5609;BME280;2826;51.354;9.588;2023-03-04T10:14:29;98614.00;;;6.05;77.74
5609;BME280;2826;51.354;9.588;2023-03-04T10:17:06;98614.84;;;6.06;77.66
5609;BME280;2826;51.354;9.588;2023-03-04T10:19:47;98613.78;;;6.19;77.50
5609;BME280;2826;51.354;9.588;2023-03-04T10:22:22;98614.41;;;6.37;77.47
5609;BME280;2826;51.354;9.588;2023-03-04T10:24:55;98624.63;;;6.43;77.81
5609;BME280;2826;51.354;9.588;2023-03-04T10:27:22;98616.19;;;6.32;77.09
5609;BME280;2826;51.354;9.588;2023-03-04T10:29:49;98616.16;;;6.35;77.81
5609;BME280;2826;51.354;9.588;2023-03-04T10:32:17;98619.38;;;6.48;77.79
5609;BME280;2826;51.354;9.588;2023-03-04T10:34:45;98566.59;;;6.20;77.77
5609;BME280;2826;51.354;9.588;2023-03-04T10:37:12;98614.34;;;6.40;78.28
5609;BME280;2826;51.354;9.588;2023-03-04T10:39:39;98603.09;;;6.46;78.14
5609;BME280;2826;51.354;9.588;2023-03-04T10:42:23;98574.94;;;6.35;77.78
5609;BME280;2826;51.354;9.588;2023-03-04T10:44:52;98603.88;;;6.51;77.03
5609;BME280;2826;51.354;9.588;2023-03-04T10:47:22;98598.75;;;6.49;76.89
5609;BME280;2826;51.354;9.588;2023-03-04T10:49:51;98610.72;;;6.53;76.98
5609;BME280;2826;51.354;9.588;2023-03-04T10:52:25;98605.69;;;6.46;77.70
5609;BME280;2826;51.354;9.588;2023-03-04T10:54:55;98605.66;;;6.49;78.06
5609;BME280;2826;51.354;9.588;2023-03-04T10:57:32;98602.22;;;6.48;78.09
5609;BME280;2826;51.354;9.588;2023-03-04T11:00:01;98597.91;;;6.49;78.04
5609;BME280;2826;51.354;9.588;2023-03-04T11:02:35;98601.25;;;6.56;77.87
5609;BME280;2826;51.354;9.588;2023-03-04T11:05:16;98595.22;;;6.57;77.33
5609;BME280;2826;51.354;9.588;2023-03-04T11:07:45;98597.72;;;6.60;77.51
5609;BME280;2826;51.354;9.588;2023-03-04T11:10:17;98587.34;;;6.64;76.88
5609;BME280;2826;51.354;9.588;2023-03-04T11:12:51;98589.78;;;6.72;76.77
5609;BME280;2826;51.354;9.588;2023-03-04T11:15:22;98592.38;;;6.71;76.76
5609;BME280;2826;51.354;9.588;2023-03-04T11:17:54;98596.88;;;6.61;77.43
5609;BME280;2826;51.354;9.588;2023-03-04T11:20:28;98572.44;;;6.28;78.72
5609;BME280;2826;51.354;9.588;2023-03-04T11:23:00;98598.69;;;6.54;78.88
5609;BME280;2826;51.354;9.588;2023-03-04T11:25:31;98591.22;;;6.37;79.45
5609;BME280;2826;51.354;9.588;2023-03-04T11:28:02;98592.13;;;6.33;80.13
5609;BME280;2826;51.354;9.588;2023-03-04T11:30:35;98592.81;;;6.46;80.73
5609;BME280;2826;51.354;9.588;2023-03-04T11:33:11;98598.94;;;6.37;81.30
5609;BME280;2826;51.354;9.588;2023-03-04T11:35:46;98599.94;;;6.28;81.06
5609;BME280;2826;51.354;9.588;2023-03-04T11:38:17;98586.06;;;6.37;80.67
5609;BME280;2826;51.354;9.588;2023-03-04T11:40:48;98592.78;;;6.47;80.84
5609;BME280;2826;51.354;9.588;2023-03-04T11:43:20;98581.47;;;6.56;81.00
5609;BME280;2826;51.354;9.588;2023-03-04T11:48:49;98586.47;;;6.64;79.71
5609;BME280;2826;51.354;9.588;2023-03-04T11:51:22;98574.63;;;6.55;79.75
5609;BME280;2826;51.354;9.588;2023-03-04T11:54:07;98579.59;;;6.66;79.61
5609;BME280;2826;51.354;9.588;2023-03-04T11:56:41;98581.63;;;6.45;80.50
5609;BME280;2826;51.354;9.588;2023-03-04T12:02:14;98559.00;;;6.11;82.29
5609;BME280;2826;51.354;9.588;2023-03-04T12:05:02;98567.28;;;6.28;82.04
5609;BME280;2826;51.354;9.588;2023-03-04T12:07:45;98563.88;;;6.28;82.47
5609;BME280;2826;51.354;9.588;2023-03-04T12:10:21;98560.25;;;6.40;82.24
5609;BME280;2826;51.354;9.588;2023-03-04T12:13:06;98545.31;;;6.61;81.81
5609;BME280;2826;51.354;9.588;2023-03-04T12:15:44;98555.31;;;6.78;81.12
5609;BME280;2826;51.354;9.588;2023-03-04T12:18:30;98550.94;;;6.83;80.23
5609;BME280;2826;51.354;9.588;2023-03-04T12:21:11;98549.13;;;6.88;80.00
5609;BME280;2826;51.354;9.588;2023-03-04T12:26:50;98537.59;;;7.08;78.35
5609;BME280;2826;51.354;9.588;2023-03-04T12:29:27;98540.38;;;6.97;78.12
5609;BME280;2826;51.354;9.588;2023-03-04T12:32:01;98529.88;;;7.06;77.83
5609;BME280;2826;51.354;9.588;2023-03-04T12:34:36;98532.53;;;7.02;78.31
5609;BME280;2826;51.354;9.588;2023-03-04T12:37:35;98530.97;;;6.95;78.58
5609;BME280;2826;51.354;9.588;2023-03-04T12:40:27;98530.25;;;6.86;79.16
5609;BME280;2826;51.354;9.588;2023-03-04T12:43:21;98525.50;;;6.64;81.09
5609;BME280;2826;51.354;9.588;2023-03-04T12:46:00;98531.59;;;6.59;81.39
5609;BME280;2826;51.354;9.588;2023-03-04T12:48:30;98528.09;;;6.63;81.31
5609;BME280;2826;51.354;9.588;2023-03-04T12:51:08;98513.50;;;6.63;81.55
5609;BME280;2826;51.354;9.588;2023-03-04T12:53:47;98513.50;;;6.63;81.09
5609;BME280;2826;51.354;9.588;2023-03-04T12:56:22;98509.66;;;6.85;80.23
5609;BME280;2826;51.354;9.588;2023-03-04T12:58:51;98512.44;;;6.74;80.09
5609;BME280;2826;51.354;9.588;2023-03-04T13:01:23;98509.00;;;6.73;80.11
5609;BME280;2826;51.354;9.588;2023-03-04T13:03:56;98506.19;;;6.86;80.55
5609;BME280;2826;51.354;9.588;2023-03-04T13:06:33;98501.34;;;6.70;81.82
5609;BME280;2826;51.354;9.588;2023-03-04T13:09:04;98509.16;;;6.65;81.98
5609;BME280;2826;51.354;9.588;2023-03-04T13:11:53;98502.25;;;6.69;82.76
5609;BME280;2826;51.354;9.588;2023-03-04T13:14:26;98501.25;;;6.75;82.88
5609;BME280;2826;51.354;9.588;2023-03-04T13:16:54;98498.75;;;6.72;83.00
5609;BME280;2826;51.354;9.588;2023-03-04T13:19:44;98494.56;;;6.64;83.26
5609;BME280;2826;51.354;9.588;2023-03-04T13:22:40;98486.09;;;6.59;83.38
5609;BME280;2826;51.354;9.588;2023-03-04T13:25:28;98484.09;;;6.74;82.60
5609;BME280;2826;51.354;9.588;2023-03-04T13:28:20;98481.28;;;6.86;81.63
5609;BME280;2826;51.354;9.588;2023-03-04T13:31:18;98441.06;;;6.77;81.30
5609;BME280;2826;51.354;9.588;2023-03-04T13:33:52;98463.63;;;7.09;80.44
5609;BME280;2826;51.354;9.588;2023-03-04T13:39:27;98479.50;;;6.88;79.44
5609;BME280;2826;51.354;9.588;2023-03-04T13:41:54;98476.06;;;6.89;78.96
5609;BME280;2826;51.354;9.588;2023-03-04T13:47:39;98476.09;;;6.88;78.91
5609;BME280;2826;51.354;9.588;2023-03-04T13:50:23;98466.63;;;6.88;78.50
5609;BME280;2826;51.354;9.588;2023-03-04T13:52:50;98462.09;;;7.01;77.86
5609;BME280;2826;51.354;9.588;2023-03-04T13:55:34;98470.09;;;6.87;78.01
5609;BME280;2826;51.354;9.588;2023-03-04T13:58:02;98464.19;;;6.80;77.64
5609;BME280;2826;51.354;9.588;2023-03-04T14:00:46;98461.72;;;6.76;78.32
5609;BME280;2826;51.354;9.588;2023-03-04T14:03:13;98473.78;;;6.74;78.91